Latest Weather Observations for Moorabbin Airport

IDV60901

Issued at 11:21 am EDT Friday 27 February 2015 (issued every 10 minutes, with the page automatically refreshed every 10 minutes)

About weather observations | Map of Melbourne area stations | Latest observations for Melbourne area | Other Formats
Station Details ID: 086077 Name: MOORABBIN AIRPORT Lat: -37.98 Lon: 145.10 Height: 12.1 m
Data from the previous 72 hours. | See also: Recent months at Moorabbin Airport
Date/Time
EDT
Tmp

°C
App
Tmp
°C
Dew
Point
°C
Rel
Hum
%
Delta-T

°C
Wind Press
QNH
hPa
Press
MSL
hPa
Rain
since
9 am
mm
Dir
 
Spd
km/h
Gust
km/h
Spd
kts
Gust
kts
27/11:00am 20.2 19.0 13.9 67 3.6 WSW 13 20 7 11 1011.6 1011.6 0.0
27/10:30am 20.0 20.3 13.5 66 3.7 N 4 9 2 5 1011.4 1011.4 0.0
27/10:00am 20.2 19.7 13.9 67 3.6 NE 9 11 5 6 1011.2 1011.2 0.0
27/09:30am 19.1 19.1 13.7 71 3.1 N 6 13 3 7 1011.2 1011.2 0.0
27/08:30am 16.4 15.8 14.6 89 1.0 NNE 11 13 6 7 1011.0 1011.0 0.0
27/08:00am 15.0 14.9 14.0 94 0.6 N 7 9 4 5 1010.9 1010.9 0.0
27/07:30am 13.5 14.3 12.4 93 0.6 CALM 0 0 0 0 1010.5 1010.5 0.0
27/07:00am 13.9 14.8 12.8 93 0.6 CALM 0 0 0 0 1010.2 1010.2 0.0
27/06:30am 14.3 14.5 13.2 93 0.6 NNE 4 9 2 5 1009.8 1009.8 0.0
27/05:30am 14.3 14.1 13.0 92 0.7 NNW 6 7 3 4 1010.0 1010.0 0.0
27/05:00am 14.6 15.6 13.3 92 0.7 CALM 0 2 0 1 1009.9 1009.9 0.0
27/04:30am 14.9 16.0 13.6 92 0.7 CALM 0 6 0 3 1009.9 1009.9 0.0
27/04:00am 14.9 14.6 13.4 91 0.8 N 7 7 4 4 1010.2 1010.2 0.0
27/03:30am 14.2 14.9 12.2 88 1.1 CALM 0 0 0 0 1010.8 1010.8 0.0
27/03:00am 14.6 14.2 12.3 86 1.3 SW 6 7 3 4 1010.8 1010.8 0.0
27/02:30am 15.0 15.4 12.5 85 1.4 E 2 6 1 3 1010.6 1010.6 0.0
27/02:00am 16.0 15.6 13.1 83 1.6 E 7 7 4 4 1010.6 1010.6 0.0
27/01:30am 16.5 16.4 13.2 81 1.8 SSE 6 9 3 5 1011.3 1011.3 0.0
27/01:00am 16.7 16.3 13.0 79 2.1 SE 7 11 4 6 1011.4 1011.4 0.0
27/12:30am 17.3 17.9 13.2 77 2.3 E 2 6 1 3 1011.8 1011.8 0.0
 
Date/Time
EDT
Tmp

°C
App
Tmp
°C
Dew
Point
°C
Rel
Hum
%
Delta-T

°C
Wind Press
QNH
hPa
Press
MSL
hPa
Rain
since
9 am
mm
Dir
 
Spd
km/h
Gust
km/h
Spd
kts
Gust
kts
26/11:30pm 16.6 16.3 12.6 77 2.2 SSE 6 7 3 4 1011.6 1011.6 0.0
26/11:00pm 17.3 16.2 13.0 76 2.4 SSE 11 13 6 7 1011.6 1011.6 0.0
26/10:30pm 17.5 16.3 12.8 74 2.6 SSE 11 15 6 8 1011.8 1011.8 0.0
26/10:00pm 18.2 16.5 12.4 69 3.2 SSE 13 19 7 10 1011.8 1011.8 0.0
26/09:30pm 18.8 16.5 11.6 63 4.0 SSE 15 20 8 11 1011.7 1011.7 0.0
26/09:00pm 18.6 16.4 10.9 61 4.2 SSE 13 17 7 9 1011.2 1011.2 0.0
26/08:30pm 19.3 17.1 13.2 68 3.5 SSE 17 22 9 12 1010.6 1010.6 0.0
26/08:00pm 20.0 17.7 14.1 69 3.4 SSW 19 28 10 15 1010.2 1010.2 0.0
26/07:30pm 20.4 17.4 13.6 65 3.9 SSW 22 30 12 16 1009.8 1009.8 0.0
26/07:00pm 21.0 18.3 14.6 67 3.8 SSW 22 28 12 15 1009.6 1009.6 0.0
26/06:30pm 21.3 19.1 14.9 67 3.8 SSW 20 28 11 15 1009.4 1009.4 0.0
26/05:30pm 22.0 19.8 14.9 64 4.2 SW 20 24 11 13 1009.3 1009.3 0.0
26/05:00pm 22.6 20.3 14.2 59 4.9 SSW 19 24 10 13 1009.3 1009.3 0.0
26/04:30pm 22.9 20.3 13.9 57 5.3 SW 20 26 11 14 1009.5 1009.5 0.0
26/04:00pm 22.6 19.8 14.4 60 4.8 SW 22 28 12 15 1009.7 1009.7 0.0
26/03:30pm 22.3 19.3 14.7 62 4.5 SSW 24 30 13 16 1009.9 1009.9 0.0
26/03:00pm 22.4 19.6 14.3 60 4.8 SSW 22 28 12 15 1010.3 1010.3 0.0
26/02:30pm 22.6 20.4 15.0 62 4.5 SSW 20 28 11 15 1010.4 1010.4 0.0
26/02:00pm 21.7 19.1 14.8 65 4.1 SW 22 33 12 18 1010.7 1010.7 0.0
26/01:30pm 21.8 20.0 16.1 70 3.4 SSW 20 28 11 15 1010.8 1010.8 0.0
26/01:00pm 20.7 18.8 15.7 73 3.0 SSW 20 30 11 16 1010.9 1010.9 0.0
26/12:30pm 20.7 19.2 15.3 71 3.2 SW 17 24 9 13 1011.1 1011.1 0.0
26/12:00pm 20.3 19.2 15.3 73 3.0 WSW 15 20 8 11 1011.2 1011.2 0.0
26/11:30am 20.5 20.2 15.5 73 3.0 WNW 11 19 6 10 1011.1 1011.1 0.0
26/11:00am 20.7 20.6 15.9 74 2.9 WSW 11 19 6 10 1011.2 1011.2 0.0
26/10:30am 19.7 19.7 16.2 80 2.1 WNW 11 19 6 10 1010.9 1010.9 0.0
26/10:00am 18.9 18.4 15.8 82 1.8 WNW 13 20 7 11 1011.1 1011.1 0.0
26/09:30am 18.6 18.8 15.7 83 1.7 WNW 9 17 5 9 1010.7 1010.7 0.0
26/09:00am 18.0 17.8 15.6 86 1.4 WNW 11 20 6 11 1010.6 1010.6 0.0
26/08:30am 17.9 16.9 15.5 86 1.4 WNW 15 20 8 11 1010.6 1010.6 0.0
26/08:00am 18.2 17.2 15.5 84 1.6 W 15 20 8 11 1010.2 1010.2 0.0
26/07:30am 18.1 18.2 15.5 85 1.5 WNW 9 13 5 7 1009.9 1009.9 0.0
26/07:00am 18.1 18.3 15.7 86 1.4 WNW 9 15 5 8 1009.5 1009.5 0.0
26/06:30am 17.8 18.0 15.8 88 1.2 NW 9 11 5 6 1009.2 1009.2 0.0
26/06:00am 17.7 18.5 16.4 92 0.8 NW 7 11 4 6 1008.7 1008.7 0.0
26/05:30am 16.7 17.2 15.6 93 0.6 NNW 7 9 4 5 1008.7 1008.7 0.0
26/05:00am 15.3 16.5 13.7 90 0.9 CALM 0 0 0 0 1008.4 1008.4 0.0
26/04:30am 15.5 15.6 14.0 91 0.8 N 6 7 3 4 1008.9 1008.9 0.0
26/04:00am 15.3 15.1 13.7 90 0.9 N 7 9 4 5 1008.8 1008.8 0.0
26/03:30am 16.1 17.3 13.9 87 1.2 CALM 0 0 0 0 1008.9 1008.9 0.0
26/03:00am 16.1 17.3 13.8 86 1.3 CALM 0 4 0 2 1009.0 1009.0 0.0
26/02:30am 17.2 18.3 14.7 85 1.4 WSW 2 9 1 5 1008.9 1008.9 0.0
26/02:00am 16.4 17.6 13.7 84 1.5 CALM 0 0 0 0 1009.1 1009.1 0.0
26/01:30am 16.7 17.1 13.8 83 1.6 SSW 4 6 2 3 1009.4 1009.4 0.0
26/01:00am 16.7 16.7 13.6 82 1.8 SE 6 7 3 4 1009.2 1009.2 0.0
26/12:30am 17.0 16.8 13.5 80 2.0 SE 7 9 4 5 1009.4 1009.4 0.0
26/12:00am 17.7 17.6 13.8 78 2.2 ESE 7 9 4 5 1009.5 1009.5 0.0
 
Date/Time
EDT
Tmp

°C
App
Tmp
°C
Dew
Point
°C
Rel
Hum
%
Delta-T

°C
Wind Press
QNH
hPa
Press
MSL
hPa
Rain
since
9 am
mm
Dir
 
Spd
km/h
Gust
km/h
Spd
kts
Gust
kts
25/11:30pm 18.4 17.2 14.1 76 2.5 SE 13 15 7 8 1009.7 1009.7 0.0
25/11:00pm 18.9 18.2 14.4 75 2.6 SSE 11 15 6 8 1009.9 1009.9 0.0
25/10:30pm 18.9 18.1 14.0 73 2.8 SE 11 13 6 7 1009.7 1009.7 0.0
25/10:00pm 19.8 18.9 13.7 68 3.5 SE 11 17 6 9 1009.6 1009.6 0.0
25/09:30pm 20.7 19.2 14.1 66 3.8 ESE 15 20 8 11 1009.5 1009.5 0.0
25/09:00pm 21.2 19.2 13.9 63 4.2 ESE 17 22 9 12 1009.5 1009.5 0.0
25/08:30pm 22.1 18.8 14.0 60 4.7 ESE 24 32 13 17 1009.5 1009.5 0.0
25/08:00pm 22.8 19.2 14.1 58 5.1 ESE 26 33 14 18 1009.4 1009.4 0.0
25/07:30pm 23.8 19.8 14.2 55 5.7 ESE 28 35 15 19 1009.5 1009.5 0.0
25/07:00pm 24.4 20.3 13.9 52 6.2 SE 28 37 15 20 1009.8 1009.8 0.0
25/06:30pm 25.3 21.2 13.8 49 6.8 ESE 28 35 15 19 1009.4 1009.4 0.0
25/06:00pm 26.6 23.2 14.7 48 7.2 ESE 26 32 14 17 1009.6 1009.6 0.0
25/05:30pm 26.8 23.2 14.2 46 7.5 SE 26 37 14 20 1009.8 1009.8 0.0
25/05:00pm 27.0 23.7 14.1 45 7.7 SE 24 33 13 18 1009.9 1009.9 0.0
25/04:30pm 27.5 24.8 14.5 45 7.8 SE 22 32 12 17 1010.2 1010.2 0.0
25/04:00pm 27.4 24.9 14.1 44 7.9 SE 20 28 11 15 1010.9 1010.9 0.0
25/03:30pm 26.0 24.3 13.5 46 7.3 SE 15 26 8 14 1011.4 1011.4 0.0
25/03:00pm 25.7 24.4 14.8 51 6.5 SW 15 26 8 14 1011.8 1011.8 0.0
25/02:30pm 25.0 23.6 15.6 56 5.7 SW 17 20 9 11 1012.5 1012.5 0.0
25/02:00pm 24.0 22.0 15.0 57 5.4 SW 19 22 10 12 1013.2 1013.2 0.0
25/01:30pm 24.2 23.0 15.1 56 5.4 SW 15 20 8 11 1013.4 1013.4 0.0
25/01:00pm 24.2 22.1 14.6 55 5.7 SW 19 24 10 13 1014.0 1014.0 0.0
25/12:30pm 25.2 25.1 14.0 49 6.6 SW 7 15 4 8 1014.1 1014.1 0.0
25/12:00pm 23.7 22.8 13.6 53 5.9 SE 11 19 6 10 1014.5 1014.5 0.0
25/11:30am 22.5 21.5 13.3 56 5.3 E 11 15 6 8 1014.7 1014.7 0.0
25/11:00am 21.4 20.3 13.1 59 4.7 ENE 11 17 6 9 1015.0 1015.0 0.0
25/10:30am 19.3 18.5 12.8 66 3.7 ENE 9 15 5 8 1015.4 1015.4 0.0
25/10:00am 18.7 17.4 12.5 67 3.5 E 11 17 6 9 1015.5 1015.5 0.0
25/09:30am 18.0 17.2 12.9 72 2.9 E 9 11 5 6 1015.6 1015.6 0.0
25/09:00am 16.5 16.2 12.7 78 2.1 NNE 6 7 3 4 1015.6 1015.6 0.0
25/08:30am 15.5 15.0 12.6 83 1.6 NE 7 7 4 4 1015.4 1015.4 0.0
25/08:00am 14.7 14.3 12.4 86 1.3 NE 6 7 3 4 1015.4 1015.4 0.0
25/07:30am 14.6 13.9 12.1 85 1.4 NE 7 9 4 5 1015.3 1015.3 0.0
25/07:00am 14.5 13.5 12.4 87 1.1 NE 9 9 5 5 1015.1 1015.1 0.0
25/06:30am 13.9 12.7 11.6 86 1.2 E 9 11 5 6 1014.9 1014.9 0.0
25/06:00am 14.0 12.3 11.3 84 1.4 E 11 13 6 7 1014.7 1014.7 0.0
25/05:30am 14.4 13.2 11.7 84 1.4 ENE 9 13 5 7 1014.9 1014.9 0.0
25/05:00am 14.6 13.1 11.9 84 1.5 ESE 11 17 6 9 1014.7 1014.7 0.0
25/04:30am 14.9 13.1 12.0 83 1.6 ESE 13 20 7 11 1014.6 1014.6 0.0
25/04:00am 15.4 12.6 12.5 83 1.6 ESE 19 22 10 12 1014.8 1014.8 0.0
25/03:30am 15.8 12.8 12.7 82 1.7 ESE 20 32 11 17 1014.8 1014.8 0.0
25/03:00am 15.9 12.6 12.8 82 1.7 ESE 22 33 12 18 1015.0 1015.0 0.0
25/02:30am 16.0 10.8 12.7 81 1.8 SE 32 46 17 25 1015.3 1015.3 0.0
25/02:00am 15.8 11.3 12.7 82 1.7 SE 28 35 15 19 1015.9 1015.9 0.0
25/01:30am 16.0 11.8 12.4 79 2.0 SE 26 35 14 19 1016.3 1016.3 0.0
25/01:00am 15.9 11.5 11.7 76 2.3 SE 26 35 14 19 1016.6 1016.6 0.0
25/12:30am 16.0 13.3 11.6 75 2.4 SE 17 20 9 11 1017.0 1017.0 0.0
25/12:00am 15.9 13.2 11.7 76 2.3 SE 17 24 9 13 1017.4 1017.4 0.0
 
Date/Time
EDT
Tmp

°C
App
Tmp
°C
Dew
Point
°C
Rel
Hum
%
Delta-T

°C
Wind Press
QNH
hPa
Press
MSL
hPa
Rain
since
9 am
mm
Dir
 
Spd
km/h
Gust
km/h
Spd
kts
Gust
kts
24/11:30pm 16.1 14.0 12.3 78 2.1 SSE 15 17 8 9 1017.9 1017.9 0.0
24/11:00pm 17.0 14.1 12.3 74 2.6 SSE 19 24 10 13 1018.5 1018.5 0.0
24/10:30pm 17.4 14.4 12.7 74 2.6 S 20 28 11 15 1019.1 1019.1 0.0
24/10:00pm 17.8 14.3 12.3 70 3.0 S 22 32 12 17 1019.3 1019.3 0.0
24/09:30pm 17.7 14.3 12.4 71 2.9 S 22 30 12 16 1019.3 1019.3 0.0
24/09:00pm 17.5 14.5 11.8 69 3.1 S 19 28 10 15 1019.3 1019.3 0.0
24/08:30pm 17.2 13.8 11.2 68 3.2 S 20 26 11 14 1019.2 1019.2 0.0
24/08:00pm 17.5 13.6 10.9 65 3.5 SSW 22 30 12 16 1019.1 1019.1 0.0
24/07:30pm 18.2 14.2 10.6 61 4.1 S 22 32 12 17 1019.0 1019.0 0.0
24/07:00pm 18.7 14.4 10.8 60 4.3 SSW 24 35 13 19 1018.8 1018.8 0.0
24/06:30pm 19.5 15.4 11.3 59 4.5 SSW 24 33 13 18 1018.8 1018.8 0.0
24/06:00pm 18.8 14.4 10.4 58 4.5 SSW 24 33 13 18 1018.8 1018.8 0.0
24/05:30pm 19.4 14.5 10.1 55 5.0 S 26 39 14 21 1019.1 1019.1 0.0
24/05:00pm 19.1 14.0 9.3 53 5.2 S 26 35 14 19 1019.0 1019.0 0.0
24/04:30pm 20.3 15.1 8.9 48 6.0 S 26 35 14 19 1018.9 1018.9 0.0
24/04:00pm 20.2 13.7 8.2 46 6.2 S 32 41 17 22 1019.1 1019.1 0.0
24/03:30pm 20.0 13.8 8.0 46 6.2 SSW 30 37 16 20 1019.5 1019.5 0.0
24/03:00pm 20.0 14.1 7.4 44 6.4 SSW 28 39 15 21 1019.7 1019.7 0.0
24/02:30pm 20.2 14.1 8.2 46 6.2 SSW 30 41 16 22 1020.2 1020.2 0.0
24/02:00pm 19.5 13.6 7.3 45 6.2 SSW 28 35 15 19 1020.4 1020.4 0.0
24/01:30pm 20.4 15.2 7.4 43 6.7 S 24 33 13 18 1020.4 1020.4 0.0
24/01:00pm 20.2 14.8 7.9 45 6.3 S 26 35 14 19 1020.6 1020.6 0.0
24/12:30pm 19.1 14.0 7.8 48 5.8 S 24 37 13 20 1020.5 1020.5 0.0
24/12:00pm 18.4 13.0 8.1 51 5.3 SSE 26 32 14 17 1020.9 1020.9 0.0
24/11:30am 18.2 14.1 8.5 53 5.0 SE 20 32 11 17 1021.0 1021.0 0.0

Latest Capital City Observations: Canberra | Sydney | Melbourne | Brisbane | Adelaide | Perth | Hobart | Darwin

Other Formats:

Comma delimited format used in spreadsheet applications
http://www.bom.gov.au/fwo/IDV60901/IDV60901.94870.axf

JavaScript Object Notation format (JSON) in row-major order
http://www.bom.gov.au/fwo/IDV60901/IDV60901.94870.json